Terminal Aerodrome Forecast
Issued by NWS Jacksonville, FL

Home | Current Version | Previous Version | Text Only | Print | Product List | Glossary On
Versions: 1 2 3 4 5 6 7 8 9 10 11 12 13 14
000
FTUS42 KJAX 291357 AAA
TAFGNV
TAF AMD
KGNV 291357Z 2914/3012 13009G16KT P6SM BKN015 BKN025
     FM291530 13010G18KT P6SM SCT030 SCT250
     FM300000 11010KT P6SM FEW015
     FM300700 13005KT P6SM BKN015=

USA.gov is the U.S. government's official web portal to all federal, state and local government web resources and services.